Ibadan, Ibadan Airport (DNIB)

NameIbadan Airport
CityIbadan
CountryNigeria
ICAODNIB
IATAIBA
Altitude221 m
CoordinatesGoogle Map
Live Air TrafficLiveATC.net
METARDNIB 151400Z 23008KT 9999 SCT012 29/23 Q1012
2018-04-15 14:00:00 Wind: Southwest (230°) 4.12 m/s - Visibility: > 10000 m - Temperature: 29 °C - Dew point: 23 °C - Humidity: 70.1% - Pressure: 1012 hPa

Sorry, no flights used the airport in this database.